createdAt,value
2018-07-23T00:00:22.416Z,19.90
2018-07-23T00:05:21.018Z,19.60
2018-07-23T00:07:50.824Z,19.70
2018-07-23T00:10:20.536Z,19.60
2018-07-23T00:12:50.111Z,19.60
2018-07-23T00:15:19.725Z,19.50
2018-07-23T00:17:49.436Z,19.50
2018-07-23T00:20:18.725Z,19.50
2018-07-23T00:22:47.936Z,19.40
2018-07-23T00:25:17.187Z,19.50
2018-07-23T00:27:46.435Z,19.50
2018-07-23T00:30:16.375Z,19.40
2018-07-23T00:32:45.616Z,19.30
2018-07-23T00:35:14.970Z,19.10
2018-07-23T00:37:44.458Z,19.10
2018-07-23T00:40:14.066Z,19.20
2018-07-23T00:42:43.458Z,19.20
2018-07-23T00:45:12.691Z,19.10
2018-07-23T00:47:41.932Z,19.00
2018-07-23T00:50:12.307Z,19.00
2018-07-23T00:52:41.555Z,19.00
2018-07-23T00:55:10.787Z,18.70
2018-07-23T00:57:40.132Z,18.50
2018-07-23T01:00:09.534Z,18.50
2018-07-23T01:02:38.782Z,18.70
2018-07-23T01:05:08.024Z,18.80
2018-07-23T01:07:37.319Z,18.90
2018-07-23T01:10:06.620Z,18.60
2018-07-23T01:12:36.304Z,18.60
2018-07-23T01:15:06.111Z,18.60
2018-07-23T01:17:35.399Z,18.60
2018-07-23T01:20:05.425Z,18.70
2018-07-23T01:22:34.659Z,18.80
2018-07-23T01:25:04.036Z,18.60
2018-07-23T01:27:33.259Z,18.70
2018-07-23T01:30:03.109Z,18.70
2018-07-23T01:32:32.343Z,18.80
2018-07-23T01:35:01.596Z,18.70
2018-07-23T01:37:30.836Z,18.20
2018-07-23T01:40:00.240Z,18.20
2018-07-23T01:42:29.460Z,18.00
2018-07-23T01:44:58.705Z,17.90
2018-07-23T01:47:27.926Z,18.00
2018-07-23T01:49:57.203Z,18.10
2018-07-23T01:52:26.468Z,18.00
2018-07-23T01:54:55.711Z,17.90
2018-07-23T01:57:24.936Z,17.90
2018-07-23T01:59:54.204Z,17.90
2018-07-23T02:02:23.811Z,17.90
2018-07-23T02:04:53.373Z,17.80
2018-07-23T02:07:22.615Z,17.70
2018-07-23T02:09:51.912Z,17.60
2018-07-23T02:12:21.281Z,17.50
2018-07-23T02:14:50.515Z,17.50
2018-07-23T02:17:19.747Z,17.30
2018-07-23T02:19:49.048Z,17.30
2018-07-23T02:22:18.272Z,17.20
2018-07-23T02:24:47.534Z,17.10
2018-07-23T02:27:16.743Z,17.30
2018-07-23T02:29:46.016Z,17.20
2018-07-23T02:32:15.251Z,17.20
2018-07-23T02:34:44.714Z,17.20
2018-07-23T02:37:14.048Z,17.30
2018-07-23T02:39:43.341Z,17.10
2018-07-23T02:42:12.580Z,17.20
2018-07-23T02:44:41.848Z,17.30
2018-07-23T02:47:11.072Z,17.20
2018-07-23T02:49:40.653Z,17.20
2018-07-23T02:52:09.947Z,17.30
2018-07-23T02:54:39.154Z,17.30
2018-07-23T02:57:08.580Z,17.30
2018-07-23T02:59:37.874Z,17.10
2018-07-23T03:02:07.120Z,16.90
2018-07-23T03:04:36.352Z,16.80
2018-07-23T03:07:05.595Z,16.70
2018-07-23T03:12:03.608Z,16.80
2018-07-23T03:14:32.864Z,16.80
2018-07-23T03:17:02.136Z,16.80
2018-07-23T03:19:31.407Z,16.90
2018-07-23T03:22:00.664Z,17.00
2018-07-23T03:24:29.888Z,17.00
2018-07-23T03:26:59.138Z,16.90
2018-07-23T03:29:28.406Z,16.90
2018-07-23T03:31:57.634Z,16.80
2018-07-23T03:34:26.832Z,16.80
2018-07-23T03:36:56.027Z,16.80
2018-07-23T03:39:25.351Z,16.70
2018-07-23T03:41:54.637Z,16.70
2018-07-23T03:44:23.900Z,16.70
2018-07-23T03:46:53.226Z,16.70
2018-07-23T03:49:22.557Z,16.70
2018-07-23T03:51:51.831Z,16.70
2018-07-23T03:54:21.037Z,16.70
2018-07-23T03:56:50.261Z,16.70
2018-07-23T03:59:19.533Z,16.70
2018-07-23T04:01:48.828Z,16.70
2018-07-23T04:04:18.513Z,16.70
2018-07-23T04:06:49.277Z,16.60
2018-07-23T04:09:18.573Z,16.60
2018-07-23T04:11:48.148Z,16.50
2018-07-23T04:14:17.408Z,16.40
2018-07-23T04:16:46.651Z,16.40
2018-07-23T04:19:16.179Z,16.30
2018-07-23T04:21:45.774Z,16.20
2018-07-23T04:24:15.059Z,16.20
2018-07-23T04:26:44.400Z,16.20
2018-07-23T04:29:13.741Z,16.30
2018-07-23T04:34:11.840Z,16.20
2018-07-23T04:39:10.045Z,16.10
2018-07-23T04:41:39.332Z,16.10
2018-07-23T04:46:37.968Z,16.20
2018-07-23T04:49:07.314Z,16.20
2018-07-23T04:51:36.722Z,16.20
2018-07-23T04:54:06.132Z,16.20
2018-07-23T04:56:35.462Z,16.30
2018-07-23T04:59:04.856Z,16.30
2018-07-23T05:01:34.260Z,16.40
2018-07-23T05:04:03.669Z,16.50
2018-07-23T05:06:33.020Z,16.60
2018-07-23T05:09:02.677Z,16.60
2018-07-23T05:11:32.000Z,16.60
2018-07-23T05:14:01.313Z,16.60
2018-07-23T05:16:30.683Z,16.70
2018-07-23T05:19:00.112Z,16.80
2018-07-23T05:21:29.559Z,16.90
2018-07-23T05:23:59.073Z,17.00
2018-07-23T05:26:28.443Z,17.10
2018-07-23T05:28:57.828Z,17.20
2018-07-23T05:31:27.205Z,17.30
2018-07-23T05:33:56.526Z,17.50
2018-07-23T05:36:25.830Z,17.70
2018-07-23T05:38:55.229Z,17.90
2018-07-23T05:41:24.629Z,18.10
2018-07-23T05:43:53.940Z,18.40
2018-07-23T05:46:23.254Z,18.50
2018-07-23T05:48:52.677Z,18.60
2018-07-23T05:51:22.020Z,18.80
2018-07-23T05:53:51.350Z,19.00
2018-07-23T05:56:20.713Z,19.00
2018-07-23T05:58:50.181Z,19.20
2018-07-23T06:01:19.632Z,19.20
2018-07-23T06:03:48.980Z,19.30
2018-07-23T06:06:18.279Z,19.50
2018-07-23T06:08:48.672Z,19.70
2018-07-23T06:11:17.933Z,19.70
2018-07-23T06:13:47.266Z,19.90
2018-07-23T06:16:16.560Z,20.00
2018-07-23T06:18:45.986Z,20.20
2018-07-23T06:21:15.763Z,20.20
2018-07-23T06:23:45.099Z,20.40
2018-07-23T06:26:14.548Z,20.40
2018-07-23T06:28:43.946Z,20.50
2018-07-23T06:31:13.436Z,20.50
2018-07-23T06:33:42.762Z,20.70
2018-07-23T06:36:12.132Z,20.90
2018-07-23T06:38:41.579Z,21.10
2018-07-23T06:41:10.991Z,21.00
2018-07-23T06:43:40.338Z,21.30
2018-07-23T06:46:09.676Z,21.40
2018-07-23T06:48:39.425Z,21.30
2018-07-23T06:51:08.827Z,21.40
2018-07-23T06:53:38.142Z,21.30
2018-07-23T06:56:07.754Z,21.40
2018-07-23T06:58:37.208Z,21.60
2018-07-23T07:01:06.543Z,21.90
2018-07-23T07:03:35.960Z,21.90
2018-07-23T07:06:05.400Z,22.00
2018-07-23T07:08:34.695Z,22.10
2018-07-23T07:11:04.012Z,22.20
2018-07-23T07:13:33.510Z,22.10
2018-07-23T07:16:02.806Z,22.20
2018-07-23T07:18:32.196Z,22.30
2018-07-23T07:21:01.564Z,22.50
2018-07-23T07:23:30.820Z,22.70
2018-07-23T07:26:00.556Z,22.80
2018-07-23T07:28:29.980Z,22.80
2018-07-23T07:30:59.493Z,22.80
2018-07-23T07:33:28.892Z,22.90
2018-07-23T07:35:58.280Z,22.50
2018-07-23T07:38:27.709Z,22.50
2018-07-23T07:40:57.016Z,22.70
2018-07-23T07:43:26.376Z,23.00
2018-07-23T07:45:55.766Z,23.00
2018-07-23T07:48:25.212Z,22.80
2018-07-23T07:50:54.520Z,22.80
2018-07-23T07:53:23.853Z,23.00
2018-07-23T07:55:53.125Z,22.80
2018-07-23T07:58:22.803Z,23.00
2018-07-23T08:00:52.131Z,23.00
2018-07-23T08:03:21.484Z,23.10
2018-07-23T08:05:50.770Z,23.20
2018-07-23T08:08:20.071Z,23.30
2018-07-23T08:10:51.472Z,23.20
2018-07-23T08:13:20.788Z,23.40
2018-07-23T08:15:50.217Z,23.60
2018-07-23T08:18:19.609Z,23.70
2018-07-23T08:20:49.005Z,23.90
2018-07-23T08:23:18.387Z,24.00
2018-07-23T08:25:47.714Z,24.00
2018-07-23T08:28:17.080Z,23.70
2018-07-23T08:30:46.513Z,23.50
2018-07-23T08:33:15.867Z,23.60
2018-07-23T08:35:45.284Z,24.00
2018-07-23T08:38:14.700Z,24.30
2018-07-23T08:40:44.120Z,24.50
2018-07-23T08:43:13.531Z,24.70
2018-07-23T08:45:42.832Z,24.70
2018-07-23T08:48:12.168Z,24.50
2018-07-23T08:50:41.603Z,24.60
2018-07-23T08:53:11.012Z,24.80
2018-07-23T08:55:40.420Z,25.10
2018-07-23T08:58:09.766Z,25.10
2018-07-23T09:00:39.244Z,25.10
2018-07-23T09:03:08.632Z,25.30
2018-07-23T09:05:37.929Z,25.20
2018-07-23T09:08:07.315Z,25.10
2018-07-23T09:10:36.685Z,25.50
2018-07-23T09:13:06.099Z,25.40
2018-07-23T09:15:35.456Z,25.80
2018-07-23T09:18:04.853Z,25.60
2018-07-23T09:20:34.199Z,25.40
2018-07-23T09:23:03.549Z,25.60
2018-07-23T09:25:37.900Z,25.60
2018-07-23T09:28:07.256Z,25.60
2018-07-23T09:30:41.604Z,25.60
2018-07-23T09:33:10.957Z,25.80
2018-07-23T09:35:40.278Z,25.90
2018-07-23T09:38:09.624Z,25.80
2018-07-23T09:43:08.067Z,26.00
2018-07-23T09:45:37.481Z,26.10
2018-07-23T09:48:06.909Z,26.50
2018-07-23T09:50:36.235Z,26.50
2018-07-23T09:53:05.859Z,26.50
2018-07-23T09:55:35.161Z,26.30
2018-07-23T09:58:04.496Z,25.70
2018-07-23T10:00:38.904Z,25.40
2018-07-23T10:03:08.345Z,25.50
2018-07-23T10:05:37.691Z,25.30
2018-07-23T10:08:07.115Z,25.50
2018-07-23T10:10:36.727Z,25.90
2018-07-23T10:13:06.107Z,26.30
2018-07-23T10:15:35.452Z,26.40
2018-07-23T10:18:04.830Z,26.40
2018-07-23T10:20:34.252Z,26.30
2018-07-23T10:23:03.636Z,26.50
2018-07-23T10:25:32.947Z,26.80
2018-07-23T10:28:02.437Z,26.80
2018-07-23T10:30:31.862Z,26.60
2018-07-23T10:33:01.177Z,26.80
2018-07-23T10:35:30.595Z,26.80
2018-07-23T10:37:59.932Z,27.00
2018-07-23T10:40:29.372Z,27.40
2018-07-23T10:42:58.875Z,27.40
2018-07-23T10:45:28.204Z,27.80
2018-07-23T10:47:57.512Z,27.90
2018-07-23T10:50:27.828Z,28.00
2018-07-23T10:52:57.168Z,28.30
2018-07-23T10:55:26.568Z,28.00
2018-07-23T10:57:55.895Z,28.00
2018-07-23T11:00:25.256Z,27.90
2018-07-23T11:02:54.555Z,27.90
2018-07-23T11:05:23.897Z,28.40
2018-07-23T11:07:53.356Z,28.60
2018-07-23T11:10:23.186Z,28.60
2018-07-23T11:12:52.480Z,28.40
2018-07-23T11:15:21.968Z,29.00
2018-07-23T11:17:51.238Z,29.10
2018-07-23T11:20:20.753Z,29.60
2018-07-23T11:22:50.101Z,29.70
2018-07-23T11:25:38.875Z,29.60
2018-07-23T11:27:48.873Z,29.10
2018-07-23T11:30:18.268Z,29.60
2018-07-23T11:32:47.559Z,29.60
2018-07-23T11:35:16.895Z,29.80
2018-07-23T11:37:46.264Z,29.60
2018-07-23T11:40:15.585Z,29.90
2018-07-23T11:42:45.269Z,30.50
2018-07-23T11:45:14.648Z,30.30
2018-07-23T11:47:44.077Z,30.20
2018-07-23T11:50:13.399Z,30.50
2018-07-23T11:52:42.724Z,30.30
2018-07-23T11:55:12.045Z,30.70
2018-07-23T11:57:41.409Z,30.40
2018-07-23T12:00:10.868Z,30.70
2018-07-23T12:02:40.232Z,30.00
2018-07-23T12:05:09.588Z,29.70
2018-07-23T12:07:39.044Z,29.90
2018-07-23T12:10:08.493Z,30.00
2018-07-23T12:12:37.843Z,30.50
2018-07-23T12:15:07.579Z,30.70
2018-07-23T12:17:37.028Z,30.80
2018-07-23T12:20:07.651Z,31.00
2018-07-23T12:22:36.972Z,31.10
2018-07-23T12:25:06.276Z,30.80
2018-07-23T12:30:04.550Z,31.20
2018-07-23T12:32:33.935Z,31.00
2018-07-23T12:35:03.357Z,31.00
2018-07-23T12:37:32.650Z,31.60
2018-07-23T12:40:02.010Z,32.00
2018-07-23T12:42:31.268Z,32.00
2018-07-23T12:45:00.600Z,31.90
2018-07-23T12:47:30.204Z,31.50
2018-07-23T12:49:59.495Z,31.70
2018-07-23T12:52:29.385Z,31.70
2018-07-23T12:54:58.769Z,31.90
2018-07-23T12:57:28.170Z,32.20
2018-07-23T12:59:57.654Z,33.20
2018-07-23T13:02:27.065Z,32.50
2018-07-23T13:04:56.401Z,32.70
2018-07-23T13:09:55.560Z,32.40
2018-07-23T13:12:24.892Z,31.40
2018-07-23T13:14:54.285Z,31.70
2018-07-23T13:17:23.577Z,32.10
2018-07-23T13:19:53.176Z,32.30
2018-07-23T13:22:22.606Z,32.30
2018-07-23T13:24:52.036Z,32.60
2018-07-23T13:27:21.404Z,32.30
2018-07-23T13:29:50.748Z,32.90
2018-07-23T13:32:20.057Z,32.70
2018-07-23T13:34:49.328Z,33.20
2018-07-23T13:37:18.765Z,33.50
2018-07-23T13:39:48.202Z,33.00
2018-07-23T13:42:17.508Z,33.20
2018-07-23T13:44:46.832Z,32.70
2018-07-23T13:47:16.181Z,32.50
2018-07-23T13:49:45.601Z,33.00
2018-07-23T13:52:14.928Z,33.20
2018-07-23T13:54:44.435Z,33.30
2018-07-23T13:57:13.785Z,33.30
2018-07-23T13:59:43.157Z,32.90
2018-07-23T14:02:12.622Z,32.20
2018-07-23T14:04:41.949Z,32.80
2018-07-23T14:07:11.262Z,32.90
2018-07-23T14:09:40.682Z,33.50
2018-07-23T14:12:10.321Z,33.90
2018-07-23T14:14:39.675Z,33.90
2018-07-23T14:17:09.080Z,33.80
2018-07-23T14:19:38.604Z,34.00
2018-07-23T14:22:07.885Z,34.20
2018-07-23T14:27:06.780Z,34.60
2018-07-23T14:29:36.221Z,34.90
2018-07-23T14:32:05.676Z,35.00
2018-07-23T14:34:35.032Z,35.00
2018-07-23T14:37:04.385Z,35.00
2018-07-23T14:39:33.721Z,35.00
2018-07-23T14:42:04.025Z,35.40
2018-07-23T14:44:33.329Z,35.00
2018-07-23T14:47:02.715Z,34.90
2018-07-23T14:49:32.085Z,35.60
2018-07-23T14:52:01.425Z,35.20
2018-07-23T14:54:30.812Z,35.40
2018-07-23T14:57:00.124Z,35.00
2018-07-23T14:59:29.618Z,35.00
2018-07-23T15:01:59.140Z,34.90
2018-07-23T15:04:28.480Z,34.90
2018-07-23T15:06:57.905Z,34.90
2018-07-23T15:09:27.261Z,34.80
2018-07-23T15:11:56.579Z,35.40
2018-07-23T15:14:25.913Z,35.80
2018-07-23T15:16:55.235Z,35.40
2018-07-23T15:19:24.714Z,35.60
2018-07-23T15:21:54.099Z,35.20
2018-07-23T15:24:23.512Z,35.30
2018-07-23T15:26:52.848Z,34.50
2018-07-23T15:29:23.214Z,34.70
2018-07-23T15:31:52.576Z,35.10
2018-07-23T15:34:21.984Z,35.70
2018-07-23T15:36:51.279Z,36.40
2018-07-23T15:39:20.588Z,36.20
2018-07-23T15:41:49.852Z,36.10
2018-07-23T15:44:19.224Z,35.70
2018-07-23T15:46:48.484Z,35.90
2018-07-23T15:54:15.365Z,36.10
2018-07-23T15:56:44.709Z,36.00
2018-07-23T15:59:14.165Z,36.20
2018-07-23T16:01:43.505Z,35.90
2018-07-23T16:04:12.868Z,36.10
2018-07-23T16:06:42.394Z,35.90
2018-07-23T16:09:13.928Z,35.30
2018-07-23T16:11:44.030Z,35.20
2018-07-23T16:14:13.624Z,35.30
2018-07-23T16:16:43.028Z,35.60
2018-07-23T16:19:12.336Z,35.90
2018-07-23T16:21:41.750Z,36.10
2018-07-23T16:24:11.103Z,35.50
2018-07-23T16:26:40.465Z,35.50
2018-07-23T16:29:09.790Z,35.10
2018-07-23T16:31:39.139Z,35.20
2018-07-23T16:34:08.535Z,33.80
2018-07-23T16:36:37.887Z,33.10
2018-07-23T16:39:10.453Z,32.40
2018-07-23T16:41:39.744Z,31.50
2018-07-23T16:44:09.437Z,31.10
2018-07-23T16:46:39.118Z,30.50
2018-07-23T16:49:08.726Z,30.20
2018-07-23T16:51:38.150Z,29.70
2018-07-23T16:54:07.813Z,29.50
2018-07-23T16:56:37.200Z,29.40
2018-07-23T16:59:06.694Z,29.20
2018-07-23T17:01:36.022Z,29.10
2018-07-23T17:04:05.369Z,28.70
2018-07-23T17:06:34.824Z,28.60
2018-07-23T17:09:06.017Z,28.40
2018-07-23T17:11:35.357Z,28.30
2018-07-23T17:14:04.724Z,28.20
2018-07-23T17:16:34.097Z,28.20
2018-07-23T17:19:03.788Z,28.10
2018-07-23T17:21:33.272Z,28.00
2018-07-23T17:24:02.776Z,27.70
2018-07-23T17:26:32.737Z,27.50
2018-07-23T17:29:02.388Z,27.30
2018-07-23T17:31:31.878Z,27.40
2018-07-23T17:34:02.211Z,27.10
2018-07-23T17:36:31.576Z,27.10
2018-07-23T17:39:01.204Z,26.90
2018-07-23T17:41:30.545Z,26.90
2018-07-23T17:43:59.875Z,26.80
2018-07-23T17:46:29.211Z,26.80
2018-07-23T17:48:58.592Z,26.70
2018-07-23T17:51:27.879Z,26.50
2018-07-23T17:53:57.203Z,26.40
2018-07-23T17:56:26.505Z,26.40
2018-07-23T17:58:56.267Z,26.40
2018-07-23T18:01:26.179Z,26.30
2018-07-23T18:03:55.742Z,26.00
2018-07-23T18:06:25.320Z,26.00
2018-07-23T18:08:54.843Z,26.00
2018-07-23T18:11:24.975Z,26.00
2018-07-23T18:13:54.288Z,26.00
2018-07-23T18:16:23.704Z,26.10
2018-07-23T18:18:53.083Z,26.00
2018-07-23T18:21:22.427Z,25.80
2018-07-23T18:23:51.695Z,25.40
2018-07-23T18:26:21.084Z,25.40
2018-07-23T18:28:50.428Z,25.40
2018-07-23T18:31:19.787Z,25.60
2018-07-23T18:33:49.168Z,25.40
2018-07-23T18:36:18.940Z,25.10
2018-07-23T18:38:48.578Z,24.90
2018-07-23T18:41:17.806Z,24.60
2018-07-23T18:43:47.249Z,24.70
2018-07-23T18:49:23.609Z,24.30
2018-07-23T18:51:54.261Z,24.30
2018-07-23T18:54:25.816Z,24.10
2018-07-23T18:56:56.647Z,24.00
2018-07-23T18:59:26.032Z,23.90
2018-07-23T19:01:56.284Z,23.80
2018-07-23T19:04:25.704Z,23.70
2018-07-23T19:06:55.113Z,23.60
2018-07-23T19:11:56.087Z,23.60
2018-07-23T19:14:25.859Z,23.80
2018-07-23T19:16:56.173Z,23.90
2018-07-23T19:19:25.551Z,23.90
2018-07-23T19:21:55.014Z,24.00
2018-07-23T19:29:22.029Z,24.20
2018-07-23T19:31:51.398Z,24.10
2018-07-23T19:34:20.727Z,24.10
2018-07-23T19:36:50.137Z,24.30
2018-07-23T19:39:20.609Z,24.30
2018-07-23T19:41:50.034Z,24.30
2018-07-23T19:44:19.392Z,24.20
2018-07-23T19:46:49.163Z,24.30
2018-07-23T19:49:19.077Z,24.40
2018-07-23T19:51:48.363Z,24.30
2018-07-23T19:54:17.640Z,24.40
2018-07-23T19:56:47.050Z,24.30
2018-07-23T19:59:16.509Z,24.20
2018-07-23T20:01:45.703Z,24.20
2018-07-23T20:04:14.912Z,24.20
2018-07-23T20:06:44.101Z,23.90
2018-07-23T20:09:13.416Z,23.80
2018-07-23T20:11:42.671Z,23.80
2018-07-23T20:14:11.951Z,24.00
2018-07-23T20:16:41.165Z,23.70
2018-07-23T20:19:10.616Z,23.90
2018-07-23T20:21:39.829Z,24.00
2018-07-23T20:24:09.138Z,23.90
2018-07-23T20:26:38.404Z,23.70
2018-07-23T20:29:07.804Z,23.60
2018-07-23T20:31:37.029Z,23.60
2018-07-23T20:34:06.269Z,23.30
2018-07-23T20:36:35.504Z,23.40
2018-07-23T20:39:06.536Z,23.50
2018-07-23T20:41:35.741Z,23.20
2018-07-23T20:44:05.008Z,23.10
2018-07-23T20:46:34.240Z,23.10
2018-07-23T20:49:03.539Z,23.10
2018-07-23T20:51:32.944Z,23.10
2018-07-23T20:54:02.242Z,23.10
2018-07-23T20:56:31.482Z,22.90
2018-07-23T20:59:00.817Z,22.90
2018-07-23T21:01:30.071Z,22.90
2018-07-23T21:03:59.402Z,22.70
2018-07-23T21:06:28.693Z,22.70
2018-07-23T21:08:58.041Z,22.70
2018-07-23T21:11:27.307Z,22.60
2018-07-23T21:13:56.550Z,22.60
2018-07-23T21:16:25.868Z,22.40
2018-07-23T21:18:55.144Z,22.30
2018-07-23T21:21:24.415Z,22.30
2018-07-23T21:23:53.766Z,22.30
2018-07-23T21:26:23.011Z,22.10
2018-07-23T21:28:52.338Z,22.00
2018-07-23T21:31:21.567Z,22.00
2018-07-23T21:33:50.808Z,22.10
2018-07-23T21:36:20.108Z,22.10
2018-07-23T21:38:49.408Z,21.90
2018-07-23T21:41:18.664Z,21.90
2018-07-23T21:43:47.939Z,21.90
2018-07-23T21:46:17.176Z,21.70
2018-07-23T21:48:46.542Z,21.30
2018-07-23T21:51:15.763Z,21.20
2018-07-23T21:53:45.009Z,21.20
2018-07-23T21:56:14.396Z,21.30
2018-07-23T22:01:12.369Z,21.20
2018-07-23T22:03:41.628Z,21.30
2018-07-23T22:06:10.922Z,21.30
2018-07-23T22:08:40.222Z,21.00
2018-07-23T22:11:09.460Z,20.80
2018-07-23T22:13:38.758Z,20.80
2018-07-23T22:16:08.034Z,20.90
2018-07-23T22:18:38.348Z,20.90
2018-07-23T22:21:07.624Z,20.80
2018-07-23T22:23:36.871Z,20.70
2018-07-23T22:26:06.661Z,20.60
2018-07-23T22:28:36.345Z,20.50
2018-07-23T22:31:05.600Z,20.50
2018-07-23T22:33:34.967Z,20.60
2018-07-23T22:36:04.180Z,20.60
2018-07-23T22:38:33.443Z,20.60
2018-07-23T22:41:02.669Z,20.60
2018-07-23T22:43:31.892Z,20.70
2018-07-23T22:46:01.135Z,20.50
2018-07-23T22:48:30.468Z,20.40
2018-07-23T22:50:59.707Z,20.40
2018-07-23T22:53:28.961Z,20.40
2018-07-23T22:55:58.204Z,20.30
2018-07-23T22:58:27.532Z,20.30
2018-07-23T23:00:56.840Z,20.40
2018-07-23T23:03:26.072Z,20.40
2018-07-23T23:05:55.354Z,20.30
2018-07-23T23:08:24.593Z,20.40
2018-07-23T23:10:53.857Z,20.30
2018-07-23T23:13:23.092Z,20.30
2018-07-23T23:15:52.360Z,20.30
2018-07-23T23:18:21.589Z,20.30
2018-07-23T23:20:50.988Z,20.20
2018-07-23T23:23:20.236Z,20.00
2018-07-23T23:25:49.461Z,19.80
2018-07-23T23:28:18.689Z,19.50
2018-07-23T23:30:48.060Z,19.20
2018-07-23T23:33:17.432Z,19.40
2018-07-23T23:35:46.692Z,19.60
2018-07-23T23:38:15.931Z,19.70
2018-07-23T23:40:45.254Z,19.90
2018-07-23T23:43:14.488Z,19.90
2018-07-23T23:45:43.760Z,19.70
2018-07-23T23:48:12.995Z,19.40
2018-07-23T23:50:42.398Z,19.40
2018-07-23T23:53:11.666Z,19.60
2018-07-23T23:55:40.892Z,19.70
2018-07-23T23:58:10.129Z,19.80
